sensor_id;sensor_type;location;lat;lon;timestamp;P1;durP1;ratioP1;P2;durP2;ratioP2
57395;SDS011;43222;52.912;6.940;2023-07-29T00:02:21;11.88;;;8.82;;
57395;SDS011;43222;52.912;6.940;2023-07-29T00:04:47;11.02;;;7.93;;
57395;SDS011;43222;52.912;6.940;2023-07-29T00:07:13;11.73;;;8.70;;
57395;SDS011;43222;52.912;6.940;2023-07-29T00:09:39;12.27;;;8.23;;
57395;SDS011;43222;52.912;6.940;2023-07-29T00:12:05;11.77;;;9.18;;
57395;SDS011;43222;52.912;6.940;2023-07-29T00:14:31;10.88;;;8.57;;
57395;SDS011;43222;52.912;6.940;2023-07-29T00:16:57;11.23;;;9.18;;
57395;SDS011;43222;52.912;6.940;2023-07-29T00:19:23;13.38;;;9.23;;
57395;SDS011;43222;52.912;6.940;2023-07-29T00:21:49;11.57;;;9.30;;
57395;SDS011;43222;52.912;6.940;2023-07-29T00:24:16;14.05;;;9.20;;
57395;SDS011;43222;52.912;6.940;2023-07-29T00:26:42;14.85;;;9.85;;
57395;SDS011;43222;52.912;6.940;2023-07-29T00:29:08;14.45;;;9.35;;
57395;SDS011;43222;52.912;6.940;2023-07-29T00:31:34;13.57;;;9.55;;
57395;SDS011;43222;52.912;6.940;2023-07-29T00:34:00;10.43;;;8.80;;
57395;SDS011;43222;52.912;6.940;2023-07-29T00:36:26;12.00;;;8.70;;
57395;SDS011;43222;52.912;6.940;2023-07-29T00:38:52;14.80;;;9.43;;
57395;SDS011;43222;52.912;6.940;2023-07-29T00:41:19;12.70;;;10.10;;
57395;SDS011;43222;52.912;6.940;2023-07-29T00:43:47;12.23;;;9.73;;
57395;SDS011;43222;52.912;6.940;2023-07-29T00:46:13;14.23;;;10.27;;
57395;SDS011;43222;52.912;6.940;2023-07-29T00:48:39;11.88;;;10.50;;
57395;SDS011;43222;52.912;6.940;2023-07-29T00:51:05;14.85;;;11.15;;
57395;SDS011;43222;52.912;6.940;2023-07-29T00:53:31;14.80;;;11.07;;
57395;SDS011;43222;52.912;6.940;2023-07-29T00:55:57;16.10;;;11.13;;
57395;SDS011;43222;52.912;6.940;2023-07-29T00:58:23;13.02;;;10.55;;
57395;SDS011;43222;52.912;6.940;2023-07-29T01:00:50;15.50;;;11.98;;
57395;SDS011;43222;52.912;6.940;2023-07-29T01:03:16;13.90;;;11.77;;
57395;SDS011;43222;52.912;6.940;2023-07-29T01:05:50;15.80;;;11.77;;
57395;SDS011;43222;52.912;6.940;2023-07-29T01:11:03;14.32;;;11.88;;
57395;SDS011;43222;52.912;6.940;2023-07-29T01:13:44;15.25;;;11.13;;
57395;SDS011;43222;52.912;6.940;2023-07-29T01:16:16;14.13;;;11.73;;
57395;SDS011;43222;52.912;6.940;2023-07-29T01:18:43;15.10;;;12.13;;
57395;SDS011;43222;52.912;6.940;2023-07-29T01:21:13;17.02;;;12.98;;
57395;SDS011;43222;52.912;6.940;2023-07-29T01:23:39;17.10;;;12.18;;
57395;SDS011;43222;52.912;6.940;2023-07-29T01:26:05;18.38;;;12.75;;
57395;SDS011;43222;52.912;6.940;2023-07-29T01:28:31;14.45;;;12.38;;
57395;SDS011;43222;52.912;6.940;2023-07-29T01:31:01;15.27;;;12.63;;
57395;SDS011;43222;52.912;6.940;2023-07-29T01:33:30;18.10;;;12.23;;
57395;SDS011;43222;52.912;6.940;2023-07-29T01:36:03;14.30;;;11.80;;
57395;SDS011;43222;52.912;6.940;2023-07-29T01:38:35;13.85;;;11.85;;
57395;SDS011;43222;52.912;6.940;2023-07-29T01:41:01;18.77;;;12.07;;
57395;SDS011;43222;52.912;6.940;2023-07-29T01:43:28;15.07;;;12.02;;
57395;SDS011;43222;52.912;6.940;2023-07-29T01:45:55;15.68;;;11.63;;
57395;SDS011;43222;52.912;6.940;2023-07-29T01:48:21;16.10;;;12.15;;
57395;SDS011;43222;52.912;6.940;2023-07-29T01:50:47;12.18;;;10.80;;
57395;SDS011;43222;52.912;6.940;2023-07-29T01:53:13;16.15;;;13.05;;
57395;SDS011;43222;52.912;6.940;2023-07-29T01:55:39;16.63;;;12.10;;
57395;SDS011;43222;52.912;6.940;2023-07-29T01:58:05;12.57;;;11.27;;
57395;SDS011;43222;52.912;6.940;2023-07-29T02:00:31;16.40;;;11.77;;
57395;SDS011;43222;52.912;6.940;2023-07-29T02:02:57;14.35;;;12.35;;
57395;SDS011;43222;52.912;6.940;2023-07-29T02:05:23;15.93;;;11.63;;
57395;SDS011;43222;52.912;6.940;2023-07-29T02:07:49;12.10;;;10.52;;
57395;SDS011;43222;52.912;6.940;2023-07-29T02:10:15;14.50;;;11.45;;
57395;SDS011;43222;52.912;6.940;2023-07-29T02:12:41;15.35;;;10.88;;
57395;SDS011;43222;52.912;6.940;2023-07-29T02:15:07;15.13;;;11.68;;
57395;SDS011;43222;52.912;6.940;2023-07-29T02:17:34;14.35;;;11.82;;
57395;SDS011;43222;52.912;6.940;2023-07-29T02:20:00;14.90;;;10.95;;
57395;SDS011;43222;52.912;6.940;2023-07-29T02:22:26;13.27;;;10.82;;
57395;SDS011;43222;52.912;6.940;2023-07-29T02:24:52;13.45;;;10.48;;
57395;SDS011;43222;52.912;6.940;2023-07-29T02:27:18;13.80;;;10.90;;
57395;SDS011;43222;52.912;6.940;2023-07-29T02:29:44;14.90;;;11.50;;
57395;SDS011;43222;52.912;6.940;2023-07-29T02:32:10;14.93;;;11.63;;
57395;SDS011;43222;52.912;6.940;2023-07-29T02:34:36;14.07;;;11.20;;
57395;SDS011;43222;52.912;6.940;2023-07-29T02:37:03;16.30;;;12.15;;
57395;SDS011;43222;52.912;6.940;2023-07-29T02:39:29;12.63;;;10.65;;
57395;SDS011;43222;52.912;6.940;2023-07-29T02:41:55;15.13;;;10.85;;
57395;SDS011;43222;52.912;6.940;2023-07-29T02:44:23;14.88;;;11.07;;
57395;SDS011;43222;52.912;6.940;2023-07-29T02:46:49;14.18;;;10.63;;
57395;SDS011;43222;52.912;6.940;2023-07-29T02:49:17;14.15;;;10.32;;
57395;SDS011;43222;52.912;6.940;2023-07-29T02:51:43;12.18;;;10.60;;
57395;SDS011;43222;52.912;6.940;2023-07-29T02:54:09;13.98;;;10.45;;
57395;SDS011;43222;52.912;6.940;2023-07-29T02:56:35;16.10;;;10.60;;
57395;SDS011;43222;52.912;6.940;2023-07-29T02:59:01;15.35;;;10.10;;
57395;SDS011;43222;52.912;6.940;2023-07-29T03:01:27;13.35;;;10.60;;
57395;SDS011;43222;52.912;6.940;2023-07-29T03:03:53;14.45;;;10.23;;
57395;SDS011;43222;52.912;6.940;2023-07-29T03:06:19;15.38;;;10.52;;
57395;SDS011;43222;52.912;6.940;2023-07-29T03:08:45;12.70;;;10.00;;
57395;SDS011;43222;52.912;6.940;2023-07-29T03:11:14;16.52;;;10.27;;
57395;SDS011;43222;52.912;6.940;2023-07-29T03:13:41;13.73;;;10.38;;
57395;SDS011;43222;52.912;6.940;2023-07-29T03:16:08;15.10;;;10.57;;
57395;SDS011;43222;52.912;6.940;2023-07-29T03:18:34;12.20;;;10.07;;
57395;SDS011;43222;52.912;6.940;2023-07-29T03:21:00;11.45;;;9.27;;
57395;SDS011;43222;52.912;6.940;2023-07-29T03:23:27;12.80;;;9.70;;
57395;SDS011;43222;52.912;6.940;2023-07-29T03:25:54;13.73;;;9.27;;
57395;SDS011;43222;52.912;6.940;2023-07-29T03:28:27;13.20;;;8.77;;
57395;SDS011;43222;52.912;6.940;2023-07-29T03:30:54;11.80;;;8.75;;
57395;SDS011;43222;52.912;6.940;2023-07-29T03:33:20;9.93;;;8.32;;
57395;SDS011;43222;52.912;6.940;2023-07-29T03:35:46;9.63;;;7.85;;
57395;SDS011;43222;52.912;6.940;2023-07-29T03:38:12;11.13;;;7.50;;
57395;SDS011;43222;52.912;6.940;2023-07-29T03:40:39;9.93;;;7.50;;
57395;SDS011;43222;52.912;6.940;2023-07-29T03:43:05;10.35;;;7.90;;
57395;SDS011;43222;52.912;6.940;2023-07-29T03:45:31;10.68;;;7.57;;
57395;SDS011;43222;52.912;6.940;2023-07-29T03:47:57;12.65;;;7.55;;
57395;SDS011;43222;52.912;6.940;2023-07-29T03:50:23;11.25;;;6.93;;
57395;SDS011;43222;52.912;6.940;2023-07-29T03:52:49;9.63;;;7.10;;
57395;SDS011;43222;52.912;6.940;2023-07-29T03:55:16;9.88;;;6.60;;
57395;SDS011;43222;52.912;6.940;2023-07-29T03:57:42;13.80;;;6.63;;
57395;SDS011;43222;52.912;6.940;2023-07-29T04:00:08;10.10;;;6.40;;
57395;SDS011;43222;52.912;6.940;2023-07-29T04:02:34;10.00;;;6.63;;
57395;SDS011;43222;52.912;6.940;2023-07-29T04:05:04;9.27;;;6.30;;
57395;SDS011;43222;52.912;6.940;2023-07-29T04:07:30;9.07;;;5.55;;
57395;SDS011;43222;52.912;6.940;2023-07-29T04:09:56;9.77;;;5.47;;
57395;SDS011;43222;52.912;6.940;2023-07-29T04:12:23;8.77;;;5.70;;
57395;SDS011;43222;52.912;6.940;2023-07-29T04:14:49;9.95;;;5.55;;
57395;SDS011;43222;52.912;6.940;2023-07-29T04:17:15;9.15;;;5.05;;
57395;SDS011;43222;52.912;6.940;2023-07-29T04:19:41;8.55;;;4.60;;
57395;SDS011;43222;52.912;6.940;2023-07-29T04:22:07;8.70;;;4.57;;
57395;SDS011;43222;52.912;6.940;2023-07-29T04:24:33;8.52;;;4.65;;
57395;SDS011;43222;52.912;6.940;2023-07-29T04:26:59;9.25;;;4.50;;
57395;SDS011;43222;52.912;6.940;2023-07-29T04:29:25;9.13;;;4.32;;
57395;SDS011;43222;52.912;6.940;2023-07-29T04:31:51;8.30;;;4.03;;
57395;SDS011;43222;52.912;6.940;2023-07-29T04:34:18;7.68;;;4.85;;
57395;SDS011;43222;52.912;6.940;2023-07-29T04:36:47;9.30;;;4.50;;
57395;SDS011;43222;52.912;6.940;2023-07-29T04:39:14;7.75;;;4.47;;
57395;SDS011;43222;52.912;6.940;2023-07-29T04:41:40;7.05;;;3.65;;
57395;SDS011;43222;52.912;6.940;2023-07-29T04:44:06;6.32;;;3.42;;
57395;SDS011;43222;52.912;6.940;2023-07-29T04:46:32;7.75;;;3.60;;
57395;SDS011;43222;52.912;6.940;2023-07-29T04:48:58;9.23;;;3.40;;
57395;SDS011;43222;52.912;6.940;2023-07-29T04:51:24;6.63;;;3.50;;
57395;SDS011;43222;52.912;6.940;2023-07-29T04:53:50;7.10;;;3.50;;
57395;SDS011;43222;52.912;6.940;2023-07-29T04:56:16;7.55;;;3.58;;
57395;SDS011;43222;52.912;6.940;2023-07-29T04:58:43;6.32;;;3.65;;
57395;SDS011;43222;52.912;6.940;2023-07-29T05:01:09;7.05;;;3.65;;
57395;SDS011;43222;52.912;6.940;2023-07-29T05:03:35;7.85;;;4.30;;
57395;SDS011;43222;52.912;6.940;2023-07-29T05:06:02;7.45;;;4.10;;
57395;SDS011;43222;52.912;6.940;2023-07-29T05:08:28;6.22;;;3.88;;
57395;SDS011;43222;52.912;6.940;2023-07-29T05:10:54;6.88;;;3.65;;
57395;SDS011;43222;52.912;6.940;2023-07-29T05:13:21;6.88;;;4.10;;
57395;SDS011;43222;52.912;6.940;2023-07-29T05:15:47;6.50;;;4.22;;
57395;SDS011;43222;52.912;6.940;2023-07-29T05:18:14;7.68;;;3.95;;
57395;SDS011;43222;52.912;6.940;2023-07-29T05:20:40;6.53;;;3.47;;
57395;SDS011;43222;52.912;6.940;2023-07-29T05:23:06;6.82;;;3.83;;
57395;SDS011;43222;52.912;6.940;2023-07-29T05:25:32;6.22;;;3.55;;
57395;SDS011;43222;52.912;6.940;2023-07-29T05:28:01;6.82;;;3.22;;
57395;SDS011;43222;52.912;6.940;2023-07-29T05:30:28;7.82;;;3.40;;
57395;SDS011;43222;52.912;6.940;2023-07-29T05:32:56;8.75;;;3.20;;
57395;SDS011;43222;52.912;6.940;2023-07-29T05:35:22;6.50;;;3.30;;
57395;SDS011;43222;52.912;6.940;2023-07-29T05:37:48;7.40;;;3.33;;
57395;SDS011;43222;52.912;6.940;2023-07-29T05:40:14;6.25;;;3.20;;
57395;SDS011;43222;52.912;6.940;2023-07-29T05:42:40;8.75;;;3.40;;
57395;SDS011;43222;52.912;6.940;2023-07-29T05:45:07;6.05;;;3.08;;
57395;SDS011;43222;52.912;6.940;2023-07-29T05:47:33;7.05;;;3.10;;
57395;SDS011;43222;52.912;6.940;2023-07-29T05:49:59;6.40;;;2.92;;
57395;SDS011;43222;52.912;6.940;2023-07-29T05:52:29;7.10;;;3.13;;
57395;SDS011;43222;52.912;6.940;2023-07-29T05:54:55;7.95;;;3.42;;
57395;SDS011;43222;52.912;6.940;2023-07-29T05:57:21;6.45;;;3.15;;
57395;SDS011;43222;52.912;6.940;2023-07-29T05:59:47;7.38;;;3.13;;
57395;SDS011;43222;52.912;6.940;2023-07-29T06:02:13;5.32;;;2.95;;
57395;SDS011;43222;52.912;6.940;2023-07-29T06:04:39;7.82;;;3.05;;
57395;SDS011;43222;52.912;6.940;2023-07-29T06:07:05;6.50;;;3.15;;
57395;SDS011;43222;52.912;6.940;2023-07-29T06:09:31;9.23;;;3.08;;
57395;SDS011;43222;52.912;6.940;2023-07-29T06:11:58;7.65;;;3.42;;
57395;SDS011;43222;52.912;6.940;2023-07-29T06:14:24;7.10;;;3.65;;
57395;SDS011;43222;52.912;6.940;2023-07-29T06:16:50;6.88;;;3.25;;
57395;SDS011;43222;52.912;6.940;2023-07-29T06:19:16;7.85;;;3.80;;
57395;SDS011;43222;52.912;6.940;2023-07-29T06:21:42;8.02;;;3.72;;
57395;SDS011;43222;52.912;6.940;2023-07-29T06:24:08;8.93;;;3.65;;
57395;SDS011;43222;52.912;6.940;2023-07-29T06:26:34;6.55;;;4.05;;
57395;SDS011;43222;52.912;6.940;2023-07-29T06:29:00;9.23;;;4.00;;
57395;SDS011;43222;52.912;6.940;2023-07-29T06:31:26;9.70;;;4.43;;
57395;SDS011;43222;52.912;6.940;2023-07-29T06:33:52;10.38;;;4.50;;
57395;SDS011;43222;52.912;6.940;2023-07-29T06:36:19;7.90;;;4.55;;
57395;SDS011;43222;52.912;6.940;2023-07-29T06:38:46;9.40;;;4.20;;
57395;SDS011;43222;52.912;6.940;2023-07-29T06:41:12;10.18;;;4.75;;
57395;SDS011;43222;52.912;6.940;2023-07-29T06:43:38;8.70;;;4.85;;
57395;SDS011;43222;52.912;6.940;2023-07-29T06:46:04;9.32;;;4.68;;
57395;SDS011;43222;52.912;6.940;2023-07-29T06:48:30;10.85;;;4.80;;
57395;SDS011;43222;52.912;6.940;2023-07-29T06:50:56;9.80;;;4.57;;
57395;SDS011;43222;52.912;6.940;2023-07-29T06:53:25;9.73;;;4.70;;
57395;SDS011;43222;52.912;6.940;2023-07-29T06:55:52;11.00;;;4.68;;
57395;SDS011;43222;52.912;6.940;2023-07-29T06:58:18;8.50;;;4.38;;
57395;SDS011;43222;52.912;6.940;2023-07-29T07:00:44;8.77;;;4.88;;
57395;SDS011;43222;52.912;6.940;2023-07-29T07:03:10;11.63;;;4.72;;
57395;SDS011;43222;52.912;6.940;2023-07-29T07:05:36;8.80;;;4.10;;
57395;SDS011;43222;52.912;6.940;2023-07-29T07:08:02;11.55;;;5.00;;
57395;SDS011;43222;52.912;6.940;2023-07-29T07:10:29;8.73;;;4.72;;
57395;SDS011;43222;52.912;6.940;2023-07-29T07:12:55;12.77;;;5.35;;
57395;SDS011;43222;52.912;6.940;2023-07-29T07:15:21;43.35;;;6.13;;
57395;SDS011;43222;52.912;6.940;2023-07-29T07:17:47;11.68;;;4.25;;
57395;SDS011;43222;52.912;6.940;2023-07-29T07:20:13;10.32;;;5.50;;
57395;SDS011;43222;52.912;6.940;2023-07-29T07:22:39;8.68;;;4.60;;
57395;SDS011;43222;52.912;6.940;2023-07-29T07:25:05;12.48;;;5.28;;
57395;SDS011;43222;52.912;6.940;2023-07-29T07:27:31;11.20;;;4.85;;
57395;SDS011;43222;52.912;6.940;2023-07-29T07:29:58;9.48;;;4.50;;
57395;SDS011;43222;52.912;6.940;2023-07-29T07:32:24;9.20;;;5.18;;
57395;SDS011;43222;52.912;6.940;2023-07-29T07:34:50;11.43;;;4.60;;
57395;SDS011;43222;52.912;6.940;2023-07-29T07:37:16;10.68;;;4.80;;
57395;SDS011;43222;52.912;6.940;2023-07-29T07:39:42;7.95;;;4.70;;
57395;SDS011;43222;52.912;6.940;2023-07-29T07:42:08;12.52;;;5.25;;
57395;SDS011;43222;52.912;6.940;2023-07-29T07:44:34;12.02;;;5.53;;
57395;SDS011;43222;52.912;6.940;2023-07-29T07:47:00;10.27;;;5.07;;
57395;SDS011;43222;52.912;6.940;2023-07-29T07:49:26;8.82;;;4.30;;
57395;SDS011;43222;52.912;6.940;2023-07-29T07:51:53;10.23;;;4.68;;
57395;SDS011;43222;52.912;6.940;2023-07-29T07:54:19;10.30;;;5.00;;
57395;SDS011;43222;52.912;6.940;2023-07-29T07:56:45;12.52;;;5.05;;
57395;SDS011;43222;52.912;6.940;2023-07-29T07:59:11;9.85;;;4.72;;
57395;SDS011;43222;52.912;6.940;2023-07-29T08:01:38;11.48;;;4.90;;
57395;SDS011;43222;52.912;6.940;2023-07-29T08:04:04;12.07;;;4.53;;
57395;SDS011;43222;52.912;6.940;2023-07-29T08:06:31;10.30;;;4.82;;
57395;SDS011;43222;52.912;6.940;2023-07-29T08:08:57;12.75;;;5.03;;
57395;SDS011;43222;52.912;6.940;2023-07-29T08:11:23;10.13;;;4.50;;
57395;SDS011;43222;52.912;6.940;2023-07-29T08:13:49;8.05;;;3.85;;
57395;SDS011;43222;52.912;6.940;2023-07-29T08:16:15;8.27;;;4.25;;
57395;SDS011;43222;52.912;6.940;2023-07-29T08:18:41;9.02;;;3.78;;
57395;SDS011;43222;52.912;6.940;2023-07-29T08:21:08;6.90;;;3.67;;
57395;SDS011;43222;52.912;6.940;2023-07-29T08:23:34;8.93;;;4.00;;
57395;SDS011;43222;52.912;6.940;2023-07-29T08:26:04;7.72;;;3.47;;
57395;SDS011;43222;52.912;6.940;2023-07-29T08:28:37;7.90;;;3.05;;
57395;SDS011;43222;52.912;6.940;2023-07-29T08:31:04;7.63;;;3.47;;
57395;SDS011;43222;52.912;6.940;2023-07-29T08:33:30;8.00;;;3.50;;
57395;SDS011;43222;52.912;6.940;2023-07-29T08:35:58;9.05;;;3.10;;
57395;SDS011;43222;52.912;6.940;2023-07-29T08:38:24;10.32;;;3.70;;
57395;SDS011;43222;52.912;6.940;2023-07-29T08:43:20;8.75;;;3.10;;
57395;SDS011;43222;52.912;6.940;2023-07-29T08:45:49;8.05;;;3.10;;
57395;SDS011;43222;52.912;6.940;2023-07-29T08:48:17;7.40;;;2.90;;
57395;SDS011;43222;52.912;6.940;2023-07-29T08:50:45;8.20;;;2.72;;
57395;SDS011;43222;52.912;6.940;2023-07-29T08:53:12;6.68;;;3.00;;
57395;SDS011;43222;52.912;6.940;2023-07-29T08:55:38;10.35;;;2.83;;
57395;SDS011;43222;52.912;6.940;2023-07-29T08:58:04;7.45;;;2.42;;
57395;SDS011;43222;52.912;6.940;2023-07-29T09:00:31;6.90;;;2.88;;
57395;SDS011;43222;52.912;6.940;2023-07-29T09:02:57;7.07;;;3.10;;
57395;SDS011;43222;52.912;6.940;2023-07-29T09:05:29;10.18;;;2.95;;
57395;SDS011;43222;52.912;6.940;2023-07-29T09:07:55;6.63;;;2.50;;
57395;SDS011;43222;52.912;6.940;2023-07-29T09:10:22;6.68;;;2.80;;
57395;SDS011;43222;52.912;6.940;2023-07-29T09:12:48;8.50;;;2.88;;
57395;SDS011;43222;52.912;6.940;2023-07-29T09:15:25;7.00;;;2.83;;
57395;SDS011;43222;52.912;6.940;2023-07-29T09:17:52;6.47;;;3.05;;
57395;SDS011;43222;52.912;6.940;2023-07-29T09:20:23;8.88;;;3.03;;
57395;SDS011;43222;52.912;6.940;2023-07-29T09:22:49;9.57;;;2.70;;
57395;SDS011;43222;52.912;6.940;2023-07-29T09:25:16;6.75;;;2.60;;
57395;SDS011;43222;52.912;6.940;2023-07-29T09:27:42;7.18;;;2.80;;
57395;SDS011;43222;52.912;6.940;2023-07-29T09:30:15;7.03;;;2.42;;
57395;SDS011;43222;52.912;6.940;2023-07-29T09:32:41;8.90;;;2.38;;
57395;SDS011;43222;52.912;6.940;2023-07-29T09:35:11;6.18;;;2.47;;
57395;SDS011;43222;52.912;6.940;2023-07-29T09:37:40;5.78;;;2.10;;
57395;SDS011;43222;52.912;6.940;2023-07-29T09:40:06;5.53;;;2.03;;
57395;SDS011;43222;52.912;6.940;2023-07-29T09:42:32;6.22;;;2.17;;
57395;SDS011;43222;52.912;6.940;2023-07-29T09:44:58;5.85;;;1.73;;
57395;SDS011;43222;52.912;6.940;2023-07-29T09:47:26;7.10;;;1.90;;
57395;SDS011;43222;52.912;6.940;2023-07-29T09:49:52;10.23;;;2.45;;
57395;SDS011;43222;52.912;6.940;2023-07-29T09:52:19;5.13;;;1.73;;
57395;SDS011;43222;52.912;6.940;2023-07-29T09:54:46;5.93;;;1.80;;
57395;SDS011;43222;52.912;6.940;2023-07-29T09:57:16;5.65;;;1.77;;
57395;SDS011;43222;52.912;6.940;2023-07-29T09:59:42;6.40;;;1.73;;
57395;SDS011;43222;52.912;6.940;2023-07-29T10:02:13;4.75;;;1.70;;
57395;SDS011;43222;52.912;6.940;2023-07-29T10:04:41;6.70;;;2.45;;
57395;SDS011;43222;52.912;6.940;2023-07-29T10:07:07;6.20;;;1.90;;
57395;SDS011;43222;52.912;6.940;2023-07-29T10:09:34;7.20;;;2.30;;
57395;SDS011;43222;52.912;6.940;2023-07-29T10:12:00;4.85;;;1.70;;
57395;SDS011;43222;52.912;6.940;2023-07-29T10:14:27;6.25;;;1.70;;
57395;SDS011;43222;52.912;6.940;2023-07-29T10:16:54;6.05;;;1.67;;
57395;SDS011;43222;52.912;6.940;2023-07-29T10:19:21;5.00;;;1.70;;
57395;SDS011;43222;52.912;6.940;2023-07-29T10:21:48;7.28;;;1.67;;
57395;SDS011;43222;52.912;6.940;2023-07-29T10:24:15;5.32;;;1.63;;
57395;SDS011;43222;52.912;6.940;2023-07-29T10:26:45;12.18;;;1.95;;
57395;SDS011;43222;52.912;6.940;2023-07-29T10:29:12;4.88;;;1.50;;
57395;SDS011;43222;52.912;6.940;2023-07-29T10:31:39;6.55;;;1.67;;
57395;SDS011;43222;52.912;6.940;2023-07-29T10:34:06;4.18;;;1.48;;
57395;SDS011;43222;52.912;6.940;2023-07-29T10:36:32;4.95;;;1.77;;
57395;SDS011;43222;52.912;6.940;2023-07-29T10:38:58;3.85;;;1.40;;
57395;SDS011;43222;52.912;6.940;2023-07-29T10:41:41;6.30;;;2.00;;
57395;SDS011;43222;52.912;6.940;2023-07-29T10:46:56;9.80;;;1.90;;
57395;SDS011;43222;52.912;6.940;2023-07-29T10:49:23;8.07;;;1.80;;
57395;SDS011;43222;52.912;6.940;2023-07-29T10:51:49;5.55;;;1.58;;
57395;SDS011;43222;52.912;6.940;2023-07-29T10:54:15;4.78;;;1.55;;
57395;SDS011;43222;52.912;6.940;2023-07-29T10:56:42;4.85;;;1.60;;
57395;SDS011;43222;52.912;6.940;2023-07-29T11:01:39;5.55;;;1.52;;
57395;SDS011;43222;52.912;6.940;2023-07-29T11:07:19;5.93;;;1.60;;
57395;SDS011;43222;52.912;6.940;2023-07-29T11:15:00;5.10;;;1.50;;
57395;SDS011;43222;52.912;6.940;2023-07-29T11:17:29;5.90;;;1.70;;
57395;SDS011;43222;52.912;6.940;2023-07-29T11:19:56;4.75;;;1.40;;
57395;SDS011;43222;52.912;6.940;2023-07-29T11:22:25;5.53;;;1.80;;
57395;SDS011;43222;52.912;6.940;2023-07-29T11:24:51;5.57;;;1.67;;
57395;SDS011;43222;52.912;6.940;2023-07-29T11:27:17;6.15;;;1.95;;
57395;SDS011;43222;52.912;6.940;2023-07-29T11:29:43;6.32;;;2.00;;
57395;SDS011;43222;52.912;6.940;2023-07-29T11:32:09;9.05;;;4.07;;
57395;SDS011;43222;52.912;6.940;2023-07-29T11:34:35;6.57;;;2.08;;
57395;SDS011;43222;52.912;6.940;2023-07-29T11:37:02;5.40;;;1.90;;
57395;SDS011;43222;52.912;6.940;2023-07-29T11:39:28;5.35;;;2.20;;
57395;SDS011;43222;52.912;6.940;2023-07-29T11:41:54;4.97;;;1.95;;
57395;SDS011;43222;52.912;6.940;2023-07-29T11:44:20;6.68;;;2.33;;
57395;SDS011;43222;52.912;6.940;2023-07-29T11:46:46;6.22;;;2.65;;
57395;SDS011;43222;52.912;6.940;2023-07-29T11:49:13;7.30;;;2.38;;
57395;SDS011;43222;52.912;6.940;2023-07-29T11:51:41;7.20;;;2.00;;
57395;SDS011;43222;52.912;6.940;2023-07-29T11:54:08;4.97;;;1.90;;
57395;SDS011;43222;52.912;6.940;2023-07-29T11:56:34;6.43;;;2.30;;
57395;SDS011;43222;52.912;6.940;2023-07-29T11:59:01;6.40;;;2.40;;
57395;SDS011;43222;52.912;6.940;2023-07-29T12:01:28;6.30;;;2.13;;
57395;SDS011;43222;52.912;6.940;2023-07-29T12:03:55;5.93;;;2.30;;
57395;SDS011;43222;52.912;6.940;2023-07-29T12:06:22;7.65;;;2.33;;
57395;SDS011;43222;52.912;6.940;2023-07-29T12:08:49;8.35;;;2.35;;
57395;SDS011;43222;52.912;6.940;2023-07-29T12:11:15;6.78;;;2.10;;
57395;SDS011;43222;52.912;6.940;2023-07-29T12:13:41;5.75;;;1.98;;
57395;SDS011;43222;52.912;6.940;2023-07-29T12:16:08;9.68;;;2.17;;
57395;SDS011;43222;52.912;6.940;2023-07-29T12:18:34;5.43;;;2.10;;
57395;SDS011;43222;52.912;6.940;2023-07-29T12:21:00;4.80;;;2.03;;
57395;SDS011;43222;52.912;6.940;2023-07-29T12:23:26;7.10;;;2.15;;
57395;SDS011;43222;52.912;6.940;2023-07-29T12:25:56;5.78;;;2.22;;
57395;SDS011;43222;52.912;6.940;2023-07-29T12:30:55;7.43;;;1.90;;
57395;SDS011;43222;52.912;6.940;2023-07-29T12:35:56;6.95;;;2.13;;
57395;SDS011;43222;52.912;6.940;2023-07-29T12:38:22;5.95;;;1.92;;
57395;SDS011;43222;52.912;6.940;2023-07-29T12:40:48;7.13;;;2.25;;
57395;SDS011;43222;52.912;6.940;2023-07-29T12:43:14;6.72;;;2.30;;
57395;SDS011;43222;52.912;6.940;2023-07-29T12:45:40;5.05;;;1.92;;
57395;SDS011;43222;52.912;6.940;2023-07-29T12:48:07;10.07;;;2.20;;
57395;SDS011;43222;52.912;6.940;2023-07-29T12:50:33;5.57;;;1.83;;
57395;SDS011;43222;52.912;6.940;2023-07-29T12:52:59;4.93;;;1.90;;
57395;SDS011;43222;52.912;6.940;2023-07-29T12:55:25;4.90;;;1.92;;
57395;SDS011;43222;52.912;6.940;2023-07-29T12:57:51;6.15;;;2.28;;
57395;SDS011;43222;52.912;6.940;2023-07-29T13:00:18;5.65;;;2.00;;
57395;SDS011;43222;52.912;6.940;2023-07-29T13:02:44;8.18;;;2.08;;
57395;SDS011;43222;52.912;6.940;2023-07-29T13:05:10;6.53;;;2.10;;
57395;SDS011;43222;52.912;6.940;2023-07-29T13:07:39;7.60;;;2.17;;
57395;SDS011;43222;52.912;6.940;2023-07-29T13:10:05;5.22;;;2.00;;
57395;SDS011;43222;52.912;6.940;2023-07-29T13:12:32;6.15;;;2.05;;
57395;SDS011;43222;52.912;6.940;2023-07-29T13:14:58;6.25;;;1.95;;
57395;SDS011;43222;52.912;6.940;2023-07-29T13:17:24;4.35;;;1.75;;
57395;SDS011;43222;52.912;6.940;2023-07-29T13:19:50;6.25;;;1.80;;
57395;SDS011;43222;52.912;6.940;2023-07-29T13:22:16;6.85;;;1.90;;
57395;SDS011;43222;52.912;6.940;2023-07-29T13:24:42;4.57;;;1.80;;
57395;SDS011;43222;52.912;6.940;2023-07-29T13:27:08;5.47;;;2.03;;
57395;SDS011;43222;52.912;6.940;2023-07-29T13:29:34;4.43;;;1.70;;
57395;SDS011;43222;52.912;6.940;2023-07-29T13:32:00;6.53;;;1.80;;
57395;SDS011;43222;52.912;6.940;2023-07-29T13:34:26;4.95;;;1.98;;
57395;SDS011;43222;52.912;6.940;2023-07-29T13:36:53;5.70;;;1.63;;
57395;SDS011;43222;52.912;6.940;2023-07-29T13:39:19;7.65;;;2.25;;
57395;SDS011;43222;52.912;6.940;2023-07-29T13:41:45;5.97;;;2.00;;
57395;SDS011;43222;52.912;6.940;2023-07-29T13:44:11;7.82;;;2.15;;
57395;SDS011;43222;52.912;6.940;2023-07-29T13:46:37;6.45;;;2.50;;
57395;SDS011;43222;52.912;6.940;2023-07-29T13:49:03;5.88;;;1.77;;
57395;SDS011;43222;52.912;6.940;2023-07-29T13:51:29;5.03;;;1.70;;
57395;SDS011;43222;52.912;6.940;2023-07-29T13:53:55;5.70;;;1.80;;
57395;SDS011;43222;52.912;6.940;2023-07-29T13:56:21;5.45;;;1.70;;
57395;SDS011;43222;52.912;6.940;2023-07-29T13:58:47;6.32;;;1.88;;
57395;SDS011;43222;52.912;6.940;2023-07-29T14:01:13;4.63;;;2.13;;
57395;SDS011;43222;52.912;6.940;2023-07-29T14:03:39;8.55;;;2.35;;
57395;SDS011;43222;52.912;6.940;2023-07-29T14:06:05;5.63;;;2.00;;
57395;SDS011;43222;52.912;6.940;2023-07-29T14:08:32;7.63;;;2.65;;
57395;SDS011;43222;52.912;6.940;2023-07-29T14:11:00;6.18;;;2.20;;
57395;SDS011;43222;52.912;6.940;2023-07-29T14:13:26;7.68;;;2.25;;
57395;SDS011;43222;52.912;6.940;2023-07-29T14:15:52;6.93;;;2.10;;
57395;SDS011;43222;52.912;6.940;2023-07-29T14:18:18;5.47;;;1.90;;
57395;SDS011;43222;52.912;6.940;2023-07-29T14:20:44;5.00;;;1.60;;
57395;SDS011;43222;52.912;6.940;2023-07-29T14:23:10;6.80;;;1.80;;
57395;SDS011;43222;52.912;6.940;2023-07-29T14:25:36;7.97;;;1.90;;
57395;SDS011;43222;52.912;6.940;2023-07-29T14:28:02;5.57;;;1.60;;
57395;SDS011;43222;52.912;6.940;2023-07-29T14:30:28;5.40;;;1.50;;
57395;SDS011;43222;52.912;6.940;2023-07-29T14:32:55;4.60;;;1.30;;
57395;SDS011;43222;52.912;6.940;2023-07-29T14:35:21;4.68;;;1.50;;
57395;SDS011;43222;52.912;6.940;2023-07-29T14:37:47;6.30;;;1.80;;
57395;SDS011;43222;52.912;6.940;2023-07-29T14:40:13;6.05;;;2.20;;
57395;SDS011;43222;52.912;6.940;2023-07-29T14:42:39;6.60;;;1.63;;
57395;SDS011;43222;52.912;6.940;2023-07-29T14:45:05;6.47;;;1.80;;
57395;SDS011;43222;52.912;6.940;2023-07-29T14:47:31;8.02;;;2.47;;
57395;SDS011;43222;52.912;6.940;2023-07-29T14:49:59;7.18;;;1.95;;
57395;SDS011;43222;52.912;6.940;2023-07-29T14:52:25;5.70;;;1.65;;
57395;SDS011;43222;52.912;6.940;2023-07-29T14:54:51;6.35;;;1.90;;
57395;SDS011;43222;52.912;6.940;2023-07-29T14:57:17;4.32;;;2.03;;
57395;SDS011;43222;52.912;6.940;2023-07-29T14:59:43;7.97;;;2.10;;
57395;SDS011;43222;52.912;6.940;2023-07-29T15:02:09;6.28;;;2.13;;